Time;durP1;ratioP1;P1;durP2;ratioP2;P2;SDS_P1;SDS_P2;PMS_P1;PMS_P2;Temp;Humidity;BMP_temperature;BMP_pressure;BME280_temperature;BME280_humidity;BME280_pressure;Samples;Min_cycle;Max_cycle;Signal;HPM_P1;HPM_P2
2022/04/30 00:00:29;;;;;;;;;19.33;16.33;;;;;;;;5077622;28;45303;-77
2022/04/30 00:02:57;;;;;;;;;15.00;14.67;;;;;;;;5077903;27;45237;-75
2022/04/30 00:05:23;;;;;;;;;18.67;14.67;;;;;;;;5078112;27;45316;-76
2022/04/30 00:07:48;;;;;;;;;12.00;10.00;;;;;;;;5077237;27;46684;-76
2022/04/30 00:10:13;;;;;;;;;8.67;8.33;;;;;;;;5077524;28;45245;-75
2022/04/30 00:12:39;;;;;;;;;16.67;16.00;;;;;;;;5077628;28;45285;-79
2022/04/30 00:15:05;;;;;;;;;18.33;14.00;;;;;;;;5077462;28;45486;-77
2022/04/30 00:17:30;;;;;;;;;13.00;13.00;;;;;;;;5077632;27;46641;-75
2022/04/30 00:19:56;;;;;;;;;14.00;12.00;;;;;;;;5077467;28;45456;-79
2022/04/30 00:22:21;;;;;;;;;13.67;11.33;;;;;;;;5077742;28;45436;-76
2022/04/30 00:24:46;;;;;;;;;13.33;13.33;;;;;;;;5077802;28;45448;-77
2022/04/30 00:27:11;;;;;;;;;16.33;13.00;;;;;;;;5077177;28;47413;-76
2022/04/30 00:29:36;;;;;;;;;14.67;12.33;;;;;;;;5077282;28;45478;-75
2022/04/30 00:32:03;;;;;;;;;14.67;12.33;;;;;;;;5077446;28;45228;-78
2022/04/30 00:34:28;;;;;;;;;17.67;12.67;;;;;;;;5077760;27;45439;-75
2022/04/30 00:36:53;;;;;;;;;11.33;11.33;;;;;;;;5079692;27;46071;-75
2022/04/30 00:39:18;;;;;;;;;13.67;12.00;;;;;;;;5080972;28;45331;-78
2022/04/30 00:41:45;;;;;;;;;12.00;10.33;;;;;;;;5081032;28;45424;-76
2022/04/30 00:44:10;;;;;;;;;11.33;11.33;;;;;;;;5081152;27;45320;-75
2022/04/30 00:46:36;;;;;;;;;15.33;12.33;;;;;;;;5080724;27;46139;-76
2022/04/30 00:49:02;;;;;;;;;12.67;10.33;;;;;;;;5080789;27;45287;-77
2022/04/30 00:51:27;;;;;;;;;13.33;13.00;;;;;;;;5080897;27;45312;-79
2022/04/30 00:53:53;;;;;;;;;13.00;8.33;;;;;;;;5080839;27;45443;-77
2022/04/30 00:56:32;;;;;;;;;11.00;10.00;;;;;;;;5080566;27;47592;-76
2022/04/30 00:59:00;;;;;;;;;12.67;11.33;;;;;;;;5080676;27;45319;-75
2022/04/30 01:01:26;;;;;;;;;13.67;13.67;;;;;;;;5080755;28;45206;-77
2022/04/30 01:03:51;;;;;;;;;12.00;10.33;;;;;;;;5080769;27;45306;-79
2022/04/30 01:06:21;;;;;;;;;11.00;10.33;;;;;;;;5080519;27;46643;-78
2022/04/30 01:08:48;;;;;;;;;15.00;12.33;;;;;;;;5080267;27;45474;-80
2022/04/30 01:11:13;;;;;;;;;13.33;13.33;;;;;;;;5079243;28;45347;-75
2022/04/30 01:13:38;;;;;;;;;16.33;12.67;;;;;;;;5080735;27;45366;-77
2022/04/30 01:16:06;;;;;;;;;14.67;11.67;;;;;;;;5080063;27;46600;-77
2022/04/30 01:18:34;;;;;;;;;15.33;11.33;;;;;;;;5080349;27;45291;-76
2022/04/30 01:21:03;;;;;;;;;14.67;11.67;;;;;;;;5080721;27;45352;-74
2022/04/30 01:23:29;;;;;;;;;21.33;17.67;;;;;;;;5080465;27;45232;-75
2022/04/30 01:25:54;;;;;;;;;24.33;22.67;;;;;;;;5080139;27;46033;-77
2022/04/30 01:28:20;;;;;;;;;25.33;23.33;;;;;;;;5080066;27;45413;-77
2022/04/30 01:30:45;;;;;;;;;33.33;30.00;;;;;;;;5080284;27;45251;-78
2022/04/30 01:38:40;;;;;;;;;16.00;13.67;;;;;;;;5080049;28;45228;-74
2022/04/30 01:41:05;;;;;;;;;19.33;15.33;;;;;;;;5080014;27;45340;-78
2022/04/30 01:43:33;;;;;;;;;16.00;14.67;;;;;;;;5080423;28;45346;-77
2022/04/30 01:45:58;;;;;;;;;17.00;13.33;;;;;;;;5079434;27;46266;-77
2022/04/30 01:48:25;;;;;;;;;12.33;12.33;;;;;;;;5079889;27;45365;-73
2022/04/30 01:50:52;;;;;;;;;13.00;10.00;;;;;;;;5080088;27;45308;-74
2022/04/30 01:53:18;;;;;;;;;18.00;15.33;;;;;;;;5079775;27;45575;-78
2022/04/30 01:55:43;;;;;;;;;13.33;13.33;;;;;;;;5079816;27;46587;-76
2022/04/30 01:58:09;;;;;;;;;15.00;14.00;;;;;;;;5079706;28;45289;-75
2022/04/30 02:00:34;;;;;;;;;14.67;11.67;;;;;;;;5079674;27;45280;-78
2022/04/30 02:03:04;;;;;;;;;17.67;15.00;;;;;;;;5079974;28;45218;-74
2022/04/30 02:05:29;;;;;;;;;19.00;13.67;;;;;;;;5079508;27;46639;-77
2022/04/30 02:08:03;;;;;;;;;17.00;14.00;;;;;;;;5079556;28;45399;-77
2022/04/30 02:10:29;;;;;;;;;22.33;17.00;;;;;;;;5079815;27;45445;-75
2022/04/30 02:12:55;;;;;;;;;10.00;8.00;;;;;;;;5079696;27;45257;-79
2022/04/30 02:15:20;;;;;;;;;22.33;19.00;;;;;;;;5079308;28;45395;-75
2022/04/30 02:17:46;;;;;;;;;15.33;11.33;;;;;;;;5078287;27;45379;-76
2022/04/30 02:20:18;;;;;;;;;15.67;14.00;;;;;;;;5079533;27;45449;-76
2022/04/30 02:22:47;;;;;;;;;14.00;13.67;;;;;;;;5079764;27;45297;-77
2022/04/30 02:25:12;;;;;;;;;12.00;12.00;;;;;;;;5079065;27;46905;-77
2022/04/30 02:27:42;;;;;;;;;20.33;14.33;;;;;;;;5079380;27;45227;-75
2022/04/30 02:30:08;;;;;;;;;16.67;14.67;;;;;;;;5079386;27;45427;-73
2022/04/30 02:32:39;;;;;;;;;18.33;16.67;;;;;;;;5079411;27;45517;-77
2022/04/30 02:35:05;;;;;;;;;15.00;15.00;;;;;;;;5079033;27;46119;-80
2022/04/30 02:37:30;;;;;;;;;17.00;15.00;;;;;;;;5079170;28;45308;-77
2022/04/30 02:39:55;;;;;;;;;22.00;17.00;;;;;;;;5079171;28;45208;-75
2022/04/30 02:42:21;;;;;;;;;16.33;14.00;;;;;;;;5079323;27;45332;-77
2022/04/30 02:44:46;;;;;;;;;16.67;16.00;;;;;;;;5078910;28;46304;-77
2022/04/30 02:47:11;;;;;;;;;17.67;17.00;;;;;;;;5079067;27;45316;-79
2022/04/30 02:49:38;;;;;;;;;17.00;16.00;;;;;;;;5077595;28;45314;-79
2022/04/30 02:52:03;;;;;;;;;22.00;18.67;;;;;;;;5079095;27;45448;-78
2022/04/30 02:54:30;;;;;;;;;24.33;20.00;;;;;;;;5078532;27;46498;-79
2022/04/30 02:56:56;;;;;;;;;23.67;19.67;;;;;;;;5078731;27;45388;-78
2022/04/30 03:02:04;;;;;;;;;26.00;23.00;;;;;;;;5078947;28;45445;-78
2022/04/30 03:04:30;;;;;;;;;21.00;18.00;;;;;;;;5078334;28;45426;-80
2022/04/30 03:06:55;;;;;;;;;24.00;19.33;;;;;;;;5078487;28;45350;-76
2022/04/30 03:09:20;;;;;;;;;19.00;16.33;;;;;;;;5078701;27;45366;-78
2022/04/30 03:11:48;;;;;;;;;20.00;18.67;;;;;;;;5078918;28;45322;-78
2022/04/30 03:14:13;;;;;;;;;24.00;16.00;;;;;;;;5078428;27;46363;-78
2022/04/30 03:22:06;;;;;;;;;25.33;20.33;;;;;;;;5078608;28;45229;-75
2022/04/30 03:24:32;;;;;;;;;27.33;20.67;;;;;;;;5078468;28;46204;-78
2022/04/30 03:26:57;;;;;;;;;21.67;18.33;;;;;;;;5078129;27;45408;-78
2022/04/30 03:29:23;;;;;;;;;20.67;19.00;;;;;;;;5078422;28;45479;-78
2022/04/30 03:31:49;;;;;;;;;18.33;16.67;;;;;;;;5078629;27;45334;-78
2022/04/30 03:34:14;;;;;;;;;21.67;16.33;;;;;;;;5078236;28;46466;-79
2022/04/30 03:36:40;;;;;;;;;25.00;18.00;;;;;;;;5078102;27;45269;-78
2022/04/30 03:39:05;;;;;;;;;22.67;15.67;;;;;;;;5078350;27;45546;-78
2022/04/30 03:41:31;;;;;;;;;20.67;19.00;;;;;;;;5078369;27;45430;-79
2022/04/30 03:43:56;;;;;;;;;25.67;17.33;;;;;;;;5077288;27;46427;-78
2022/04/30 03:46:21;;;;;;;;;16.67;16.67;;;;;;;;5071800;28;45423;-74
2022/04/30 03:48:51;;;;;;;;;16.67;16.00;;;;;;;;5066282;27;45422;-79
2022/04/30 03:51:17;;;;;;;;;24.33;20.33;;;;;;;;5061022;28;45448;-79
2022/04/30 03:53:42;;;;;;;;;17.33;15.67;;;;;;;;5073332;28;45366;-79
2022/04/30 03:56:08;;;;;;;;;22.33;18.33;;;;;;;;5076273;27;45298;-80
2022/04/30 03:58:33;;;;;;;;;23.00;19.67;;;;;;;;5077978;27;45296;-75
2022/04/30 04:00:58;;;;;;;;;17.00;14.00;;;;;;;;5077956;28;45339;-74
2022/04/30 04:03:23;;;;;;;;;19.00;15.00;;;;;;;;5066804;27;47472;-76
2022/04/30 04:05:49;;;;;;;;;20.67;16.00;;;;;;;;5057547;28;45353;-73
2022/04/30 04:08:15;;;;;;;;;23.00;18.67;;;;;;;;5057577;28;45325;-75
2022/04/30 04:10:43;;;;;;;;;15.67;14.33;;;;;;;;5056438;28;45439;-76
2022/04/30 04:18:37;;;;;;;;;19.33;15.00;;;;;;;;5057511;28;45317;-78
2022/04/30 04:21:02;;;;;;;;;20.33;18.33;;;;;;;;5057518;28;45509;-77
2022/04/30 04:23:28;;;;;;;;;18.00;15.00;;;;;;;;5057299;28;45594;-78
2022/04/30 04:25:59;;;;;;;;;22.00;19.33;;;;;;;;5057304;28;45351;-77
2022/04/30 04:28:24;;;;;;;;;16.67;15.67;;;;;;;;5057936;28;45423;-75
2022/04/30 04:30:49;;;;;;;;;15.67;12.33;;;;;;;;5073823;28;45156;-78
2022/04/30 04:33:14;;;;;;;;;17.00;14.33;;;;;;;;5077181;27;47367;-78
2022/04/30 04:35:40;;;;;;;;;14.33;14.33;;;;;;;;5077379;27;45229;-78
2022/04/30 04:38:05;;;;;;;;;19.67;16.33;;;;;;;;5078550;27;45353;-77
2022/04/30 04:40:30;;;;;;;;;21.67;16.00;;;;;;;;5093227;27;45376;-78
2022/04/30 04:42:55;;;;;;;;;21.67;14.67;;;;;;;;5077158;28;47366;-75
2022/04/30 04:45:22;;;;;;;;;22.33;16.33;;;;;;;;5077302;28;45190;-74
2022/04/30 04:47:49;;;;;;;;;14.33;13.67;;;;;;;;5076427;27;45364;-78
2022/04/30 04:50:15;;;;;;;;;18.33;15.00;;;;;;;;5077592;27;45319;-79
2022/04/30 04:52:41;;;;;;;;;18.33;16.33;;;;;;;;5076803;27;45305;-79
2022/04/30 04:55:06;;;;;;;;;17.67;14.00;;;;;;;;5066622;27;45375;-80
2022/04/30 04:57:31;;;;;;;;;15.67;11.00;;;;;;;;5074281;28;45451;-81
2022/04/30 04:59:57;;;;;;;;;12.00;12.00;;;;;;;;5077024;27;45350;-80
2022/04/30 05:02:22;;;;;;;;;15.00;13.00;;;;;;;;5076188;27;47038;-78
2022/04/30 05:04:47;;;;;;;;;17.33;14.67;;;;;;;;5056470;28;45714;-78
2022/04/30 05:07:12;;;;;;;;;17.33;16.33;;;;;;;;5056945;28;45161;-78
2022/04/30 05:09:38;;;;;;;;;11.00;11.00;;;;;;;;5056886;28;45570;-77
2022/04/30 05:12:03;;;;;;;;;15.00;12.33;;;;;;;;5056703;28;47422;-82
2022/04/30 05:14:31;;;;;;;;;12.67;12.00;;;;;;;;5057092;28;45319;-80
2022/04/30 05:16:57;;;;;;;;;15.67;13.67;;;;;;;;5056656;28;45248;-77
2022/04/30 05:19:22;;;;;;;;;13.67;12.33;;;;;;;;5070724;28;45177;-82
2022/04/30 05:21:47;;;;;;;;;17.00;14.00;;;;;;;;5077573;27;47142;-83
2022/04/30 05:24:12;;;;;;;;;18.33;16.00;;;;;;;;5080100;27;45448;-81
2022/04/30 05:26:38;;;;;;;;;18.33;15.00;;;;;;;;5080759;27;45382;-81
2022/04/30 05:29:03;;;;;;;;;19.00;15.00;;;;;;;;5066803;27;45282;-78
2022/04/30 05:31:28;;;;;;;;;20.67;16.00;;;;;;;;5074220;28;46548;-77
2022/04/30 05:33:54;;;;;;;;;20.67;17.33;;;;;;;;5061351;27;45289;-81
2022/04/30 05:36:19;;;;;;;;;20.00;15.33;;;;;;;;5071477;28;45296;-78
2022/04/30 05:38:45;;;;;;;;;17.33;15.67;;;;;;;;5070908;28;45550;-78
2022/04/30 05:41:10;;;;;;;;;25.33;17.33;;;;;;;;5059929;27;46313;-75
2022/04/30 05:43:36;;;;;;;;;21.67;16.33;;;;;;;;5060010;28;45428;-78
2022/04/30 05:46:01;;;;;;;;;19.67;18.00;;;;;;;;5059724;28;45371;-77
2022/04/30 05:48:26;;;;;;;;;18.33;16.00;;;;;;;;5066496;28;45435;-78
2022/04/30 05:50:52;;;;;;;;;25.00;18.33;;;;;;;;5069283;28;45419;-78
2022/04/30 05:53:17;;;;;;;;;22.00;17.00;;;;;;;;5059196;28;45299;-78
2022/04/30 05:55:42;;;;;;;;;22.33;18.67;;;;;;;;5068671;28;45356;-80
2022/04/30 05:58:07;;;;;;;;;20.00;17.00;;;;;;;;5079914;27;45458;-78
2022/04/30 06:00:33;;;;;;;;;22.33;18.67;;;;;;;;5078807;27;47119;-79
2022/04/30 06:02:58;;;;;;;;;19.33;18.00;;;;;;;;5062326;27;45341;-78
2022/04/30 06:05:23;;;;;;;;;18.00;16.00;;;;;;;;5059406;28;45215;-79
2022/04/30 06:07:49;;;;;;;;;22.00;18.00;;;;;;;;5059763;28;45285;-77
2022/04/30 06:10:14;;;;;;;;;17.67;13.33;;;;;;;;5059105;28;46232;-79
2022/04/30 06:12:40;;;;;;;;;18.00;17.33;;;;;;;;5059322;28;45312;-75
2022/04/30 06:15:05;;;;;;;;;17.33;17.00;;;;;;;;5068550;28;45299;-78
2022/04/30 06:17:30;;;;;;;;;16.00;15.67;;;;;;;;5079133;28;45525;-80
2022/04/30 06:19:56;;;;;;;;;18.67;14.67;;;;;;;;5079648;27;46801;-77
2022/04/30 06:22:21;;;;;;;;;21.00;17.00;;;;;;;;5079381;27;45432;-77
2022/04/30 06:24:46;;;;;;;;;22.00;18.33;;;;;;;;5075189;27;45245;-77
2022/04/30 06:27:11;;;;;;;;;20.00;14.67;;;;;;;;5060405;28;45488;-81
2022/04/30 06:29:38;;;;;;;;;16.67;13.67;;;;;;;;5075620;28;46587;-75
2022/04/30 06:32:04;;;;;;;;;19.00;14.67;;;;;;;;5073474;27;45313;-75
2022/04/30 06:34:29;;;;;;;;;18.33;16.33;;;;;;;;5069502;28;45552;-76
2022/04/30 06:36:54;;;;;;;;;15.33;13.33;;;;;;;;5072591;27;45307;-74
2022/04/30 06:39:19;;;;;;;;;17.00;16.00;;;;;;;;5059089;28;45398;-75
2022/04/30 06:41:45;;;;;;;;;17.33;14.00;;;;;;;;5058828;28;45377;-76
2022/04/30 06:44:10;;;;;;;;;17.00;17.00;;;;;;;;5059196;28;45367;-74
2022/04/30 06:46:35;;;;;;;;;15.67;14.67;;;;;;;;5059349;28;45321;-73
2022/04/30 06:49:00;;;;;;;;;21.00;17.67;;;;;;;;5058592;28;45398;-76
2022/04/30 06:51:26;;;;;;;;;24.67;19.00;;;;;;;;5058611;28;45500;-73
2022/04/30 06:59:19;;;;;;;;;21.33;19.67;;;;;;;;5078051;28;45773;-75
2022/04/30 07:01:59;;;;;;;;;23.33;21.67;;;;;;;;5074251;27;45497;-73
2022/04/30 07:04:25;;;;;;;;;17.00;16.33;;;;;;;;5076128;27;45508;-74
2022/04/30 07:06:51;;;;;;;;;19.33;15.00;;;;;;;;5067888;27;45198;-75
2022/04/30 07:09:16;;;;;;;;;20.33;16.67;;;;;;;;5076740;27;46441;-74
2022/04/30 07:11:41;;;;;;;;;20.67;16.67;;;;;;;;5078664;27;45423;-73
2022/04/30 07:14:07;;;;;;;;;16.67;15.00;;;;;;;;5078947;28;45268;-75
2022/04/30 07:16:32;;;;;;;;;12.67;12.67;;;;;;;;5076918;27;45668;-74
2022/04/30 07:18:58;;;;;;;;;14.00;14.00;;;;;;;;5078092;27;46614;-74
2022/04/30 07:21:24;;;;;;;;;8.67;8.00;;;;;;;;5078612;27;45334;-75
2022/04/30 07:23:50;;;;;;;;;23.33;15.33;;;;;;;;5078059;27;45316;-76
2022/04/30 07:26:16;;;;;;;;;14.33;13.00;;;;;;;;5066456;27;45454;-74
2022/04/30 07:28:41;;;;;;;;;15.33;11.00;;;;;;;;5058827;28;47435;-73
2022/04/30 07:31:08;;;;;;;;;18.00;15.00;;;;;;;;5062295;28;45404;-76
2022/04/30 07:33:33;;;;;;;;;12.00;12.00;;;;;;;;5077956;27;45318;-79
2022/04/30 07:35:58;;;;;;;;;16.33;16.00;;;;;;;;5076622;27;45403;-76
2022/04/30 07:38:24;;;;;;;;;9.33;9.00;;;;;;;;5067959;28;46835;-77
2022/04/30 07:40:49;;;;;;;;;13.67;13.33;;;;;;;;5057823;28;45197;-77
2022/04/30 07:43:15;;;;;;;;;19.00;15.33;;;;;;;;5057857;28;45362;-80
2022/04/30 07:45:40;;;;;;;;;18.33;16.33;;;;;;;;5065910;28;45388;-75
2022/04/30 07:48:06;;;;;;;;;14.67;14.00;;;;;;;;5077691;27;46773;-74
2022/04/30 07:50:35;;;;;;;;;14.33;14.33;;;;;;;;5075963;27;45467;-73
2022/04/30 07:53:01;;;;;;;;;15.33;15.33;;;;;;;;5076348;27;45454;-77
2022/04/30 07:55:28;;;;;;;;;14.33;13.67;;;;;;;;5057836;28;45370;-78
2022/04/30 07:57:53;;;;;;;;;16.00;13.67;;;;;;;;5057506;28;45490;-76
2022/04/30 08:00:18;;;;;;;;;15.00;15.00;;;;;;;;5057243;28;45432;-75
2022/04/30 08:02:44;;;;;;;;;17.33;17.33;;;;;;;;5069263;28;45257;-77
2022/04/30 08:05:09;;;;;;;;;21.33;16.00;;;;;;;;5077447;27;45698;-76
2022/04/30 08:07:34;;;;;;;;;13.00;13.00;;;;;;;;5075145;27;47177;-77
2022/04/30 08:09:59;;;;;;;;;16.00;12.00;;;;;;;;5077984;27;45323;-76
2022/04/30 08:12:25;;;;;;;;;12.00;11.33;;;;;;;;5077741;27;45746;-77
2022/04/30 08:14:50;;;;;;;;;12.67;11.00;;;;;;;;5078153;27;45417;-74
2022/04/30 08:17:15;;;;;;;;;15.67;14.67;;;;;;;;5060607;27;47405;-72
2022/04/30 08:19:41;;;;;;;;;16.67;13.00;;;;;;;;5057205;28;45395;-72
2022/04/30 08:22:06;;;;;;;;;17.00;14.00;;;;;;;;5057608;28;45266;-72
2022/04/30 08:24:32;;;;;;;;;14.00;12.33;;;;;;;;5057141;28;45315;-72
2022/04/30 08:26:57;;;;;;;;;21.00;16.33;;;;;;;;5056546;28;47143;-73
2022/04/30 08:29:23;;;;;;;;;18.33;17.00;;;;;;;;5070204;28;45420;-72
2022/04/30 08:31:48;;;;;;;;;18.33;16.00;;;;;;;;5071528;28;45654;-74
2022/04/30 08:34:13;;;;;;;;;15.67;15.33;;;;;;;;5068892;28;45315;-72
2022/04/30 08:36:39;;;;;;;;;23.33;16.00;;;;;;;;5076725;27;45470;-73
2022/04/30 08:39:04;;;;;;;;;18.00;17.00;;;;;;;;5077820;27;45285;-74
2022/04/30 08:41:29;;;;;;;;;16.00;15.67;;;;;;;;5065205;27;45323;-75
2022/04/30 08:43:54;;;;;;;;;15.67;15.67;;;;;;;;5084056;27;45327;-73
2022/04/30 08:46:20;;;;;;;;;20.67;18.00;;;;;;;;5071730;28;46351;-73
2022/04/30 08:48:45;;;;;;;;;19.00;17.00;;;;;;;;5071673;28;45540;-70
2022/04/30 08:51:11;;;;;;;;;19.33;17.67;;;;;;;;5077471;27;45304;-70
2022/04/30 08:53:36;;;;;;;;;21.00;20.33;;;;;;;;5076273;27;45569;-70
2022/04/30 08:56:06;;;;;;;;;25.33;21.33;;;;;;;;5075702;27;46398;-72
2022/04/30 08:58:31;;;;;;;;;20.00;19.67;;;;;;;;5080077;27;45405;-71
2022/04/30 09:01:00;;;;;;;;;21.00;19.33;;;;;;;;5079498;27;45427;-71
2022/04/30 09:03:25;;;;;;;;;27.00;23.33;;;;;;;;5079921;27;45298;-72
2022/04/30 09:05:50;;;;;;;;;20.33;19.00;;;;;;;;5079864;27;47259;-71
2022/04/30 09:08:16;;;;;;;;;20.33;18.00;;;;;;;;5080269;27;45306;-73
2022/04/30 09:10:42;;;;;;;;;19.67;19.67;;;;;;;;5080442;27;45260;-74
2022/04/30 09:13:09;;;;;;;;;23.00;21.00;;;;;;;;5073616;27;45414;-72
2022/04/30 09:15:35;;;;;;;;;23.00;20.67;;;;;;;;5059908;27;47092;-76
2022/04/30 09:18:01;;;;;;;;;20.67;20.00;;;;;;;;5059900;28;45395;-76
2022/04/30 09:20:26;;;;;;;;;23.00;22.33;;;;;;;;5059870;28;45317;-76
2022/04/30 09:22:52;;;;;;;;;23.33;21.00;;;;;;;;5060061;28;45268;-73
2022/04/30 09:25:18;;;;;;;;;26.00;19.67;;;;;;;;5059798;28;45245;-73
2022/04/30 09:27:48;;;;;;;;;21.33;20.00;;;;;;;;5060098;28;45235;-73
2022/04/30 09:30:17;;;;;;;;;20.67;18.67;;;;;;;;5059733;28;45274;-73
2022/04/30 09:32:43;;;;;;;;;18.33;17.67;;;;;;;;5059972;28;45674;-73
2022/04/30 09:38:01;;;;;;;;;24.33;19.33;;;;;;;;5059402;28;45445;-71
2022/04/30 09:40:26;;;;;;;;;14.00;14.00;;;;;;;;5059360;28;45316;-72
2022/04/30 09:42:52;;;;;;;;;15.67;14.00;;;;;;;;5059484;28;45431;-72
2022/04/30 09:45:24;;;;;;;;;15.00;13.33;;;;;;;;5059299;28;47183;-72
2022/04/30 09:47:50;;;;;;;;;16.00;15.00;;;;;;;;5059493;28;45233;-73
2022/04/30 09:55:47;;;;;;;;;15.50;14.50;;;;;;;;5059279;28;45690;-73
2022/04/30 09:58:15;;;;;;;;;19.33;18.00;;;;;;;;5059278;28;45437;-73
2022/04/30 10:00:40;;;;;;;;;17.33;15.67;;;;;;;;5071540;28;45271;-73
2022/04/30 10:03:08;;;;;;;;;21.33;17.00;;;;;;;;5080153;27;45333;-73
2022/04/30 10:05:35;;;;;;;;;16.00;16.00;;;;;;;;5078606;27;46341;-73
2022/04/30 10:08:01;;;;;;;;;17.33;17.00;;;;;;;;5077869;27;45282;-72
2022/04/30 10:10:41;;;;;;;;;18.33;16.00;;;;;;;;5076800;27;45302;-77
2022/04/30 10:13:07;;;;;;;;;18.67;13.67;;;;;;;;5079106;27;45374;-73
2022/04/30 10:15:44;;;;;;;;;18.00;17.00;;;;;;;;5078239;27;46607;-74
2022/04/30 10:18:10;;;;;;;;;18.33;15.00;;;;;;;;5078538;27;45257;-74
2022/04/30 10:20:35;;;;;;;;;15.00;13.00;;;;;;;;5078760;27;45346;-71
2022/04/30 10:23:02;;;;;;;;;18.33;13.67;;;;;;;;5079270;27;45367;-73
2022/04/30 10:25:34;;;;;;;;;15.00;15.00;;;;;;;;5079225;27;47487;-73
2022/04/30 10:28:03;;;;;;;;;15.67;13.00;;;;;;;;5079104;27;45315;-73
2022/04/30 10:30:29;;;;;;;;;12.00;12.00;;;;;;;;5078815;27;45496;-72
2022/04/30 10:32:56;;;;;;;;;11.00;11.00;;;;;;;;5079414;27;45290;-73
2022/04/30 10:35:29;;;;;;;;;12.00;12.00;;;;;;;;5078729;27;46862;-73
2022/04/30 10:38:04;;;;;;;;;19.33;17.67;;;;;;;;5078807;27;45465;-72
2022/04/30 10:40:36;;;;;;;;;11.33;11.33;;;;;;;;5078919;27;45390;-73
2022/04/30 10:43:02;;;;;;;;;10.00;10.00;;;;;;;;5079176;27;45300;-73
2022/04/30 10:45:28;;;;;;;;;9.33;8.33;;;;;;;;5078674;28;46675;-72
2022/04/30 10:47:54;;;;;;;;;13.33;11.67;;;;;;;;5078933;27;45327;-73
2022/04/30 10:50:20;;;;;;;;;10.67;9.67;;;;;;;;5078639;27;45373;-74
2022/04/30 10:52:49;;;;;;;;;9.67;9.67;;;;;;;;5079166;27;45320;-74
2022/04/30 10:55:15;;;;;;;;;10.33;10.33;;;;;;;;5078807;27;46446;-74
2022/04/30 10:57:44;;;;;;;;;14.33;10.33;;;;;;;;5078779;27;45441;-74
2022/04/30 11:00:09;;;;;;;;;16.00;12.00;;;;;;;;5078905;27;45410;-74
2022/04/30 11:02:35;;;;;;;;;13.00;12.33;;;;;;;;5077956;27;45530;-73
2022/04/30 11:05:01;;;;;;;;;10.67;10.00;;;;;;;;5078288;27;46081;-74
2022/04/30 11:07:27;;;;;;;;;19.00;15.67;;;;;;;;5078573;27;45375;-73
2022/04/30 11:09:52;;;;;;;;;9.67;9.33;;;;;;;;5078643;27;45362;-74
2022/04/30 11:12:17;;;;;;;;;13.33;10.33;;;;;;;;5078886;27;45631;-73
2022/04/30 11:14:46;;;;;;;;;11.00;11.00;;;;;;;;5078363;27;46321;-74
2022/04/30 11:17:11;;;;;;;;;9.67;9.67;;;;;;;;5078343;27;45352;-73
2022/04/30 11:19:43;;;;;;;;;10.67;10.67;;;;;;;;5078187;27;45301;-73
2022/04/30 11:22:09;;;;;;;;;18.00;14.67;;;;;;;;5078587;27;45435;-73
2022/04/30 11:24:34;;;;;;;;;13.67;12.67;;;;;;;;5078187;27;46186;-73
2022/04/30 11:27:03;;;;;;;;;13.00;11.33;;;;;;;;5078215;27;45450;-75
2022/04/30 11:29:28;;;;;;;;;15.00;13.00;;;;;;;;5078182;27;45225;-74
2022/04/30 11:31:54;;;;;;;;;12.33;10.00;;;;;;;;5078502;27;45447;-74
2022/04/30 11:34:20;;;;;;;;;13.33;12.00;;;;;;;;5076829;27;45633;-74
2022/04/30 11:36:59;;;;;;;;;14.00;11.00;;;;;;;;5076799;27;45443;-74
2022/04/30 11:39:24;;;;;;;;;12.33;12.33;;;;;;;;5077143;27;45403;-73
2022/04/30 11:41:52;;;;;;;;;13.33;12.67;;;;;;;;5076632;27;45330;-74
2022/04/30 11:44:18;;;;;;;;;14.67;13.33;;;;;;;;5076744;28;46310;-71
2022/04/30 11:46:45;;;;;;;;;12.00;12.00;;;;;;;;5076704;27;45319;-73
2022/04/30 11:49:11;;;;;;;;;14.67;12.33;;;;;;;;5076546;27;45394;-72
2022/04/30 11:51:37;;;;;;;;;18.33;11.00;;;;;;;;5076493;27;45778;-73
2022/04/30 11:54:03;;;;;;;;;16.67;12.33;;;;;;;;5075840;27;46612;-72
2022/04/30 11:56:30;;;;;;;;;13.00;12.33;;;;;;;;5076183;28;45403;-72
2022/04/30 11:58:55;;;;;;;;;19.67;16.33;;;;;;;;5076323;27;45682;-73
2022/04/30 12:01:25;;;;;;;;;12.00;12.00;;;;;;;;5073973;28;45698;-74
2022/04/30 12:03:58;;;;;;;;;20.00;17.00;;;;;;;;5076752;27;46143;-71
2022/04/30 12:06:24;;;;;;;;;18.00;14.33;;;;;;;;5077344;27;45323;-72
2022/04/30 12:08:50;;;;;;;;;17.33;12.00;;;;;;;;5077714;28;45343;-71
2022/04/30 12:11:15;;;;;;;;;11.33;11.33;;;;;;;;5078046;27;45394;-72
2022/04/30 12:13:40;;;;;;;;;14.67;14.67;;;;;;;;5077550;27;45475;-72
2022/04/30 12:16:07;;;;;;;;;13.00;13.00;;;;;;;;5077326;27;45505;-72
2022/04/30 12:26:52;;;;;;;;;11.00;11.00;;;;;;;;5057264;28;45486;-71
2022/04/30 12:29:19;;;;;;;;;11.67;10.00;;;;;;;;5056454;28;45697;-71
2022/04/30 12:31:47;;;;;;;;;12.67;12.67;;;;;;;;5056354;28;45550;-72
2022/04/30 12:34:25;;;;;;;;;15.33;12.67;;;;;;;;5056602;28;45401;-72
2022/04/30 12:36:54;;;;;;;;;13.00;10.33;;;;;;;;5055738;28;45364;-72
2022/04/30 12:39:19;;;;;;;;;12.00;10.67;;;;;;;;5057065;28;45814;-72
2022/04/30 12:41:45;;;;;;;;;12.00;12.00;;;;;;;;5075655;27;45492;-71
2022/04/30 12:44:10;;;;;;;;;13.00;13.00;;;;;;;;5075529;27;46194;-71
2022/04/30 12:46:35;;;;;;;;;11.33;10.00;;;;;;;;5077272;28;45343;-71
2022/04/30 12:49:00;;;;;;;;;15.00;13.00;;;;;;;;5077479;28;45531;-71
2022/04/30 12:51:25;;;;;;;;;11.33;10.33;;;;;;;;5077401;27;45356;-71
2022/04/30 12:53:51;;;;;;;;;10.00;10.00;;;;;;;;5077063;28;46356;-71
2022/04/30 12:56:17;;;;;;;;;15.33;13.33;;;;;;;;5077067;27;45445;-70
2022/04/30 12:58:43;;;;;;;;;12.67;10.67;;;;;;;;5077130;28;45377;-71
2022/04/30 13:01:08;;;;;;;;;10.33;10.33;;;;;;;;5077119;28;45346;-71
2022/04/30 13:03:34;;;;;;;;;10.00;8.67;;;;;;;;5076469;28;45392;-71
2022/04/30 13:05:59;;;;;;;;;11.33;10.67;;;;;;;;5076753;27;45444;-70
2022/04/30 13:13:30;;;;;;;;;15.67;9.67;;;;;;;;5076344;27;45383;-70
2022/04/30 13:13:58;;;;;;;;;12.67;10.33;;;;;;;;5010521;28;45444;-71
2022/04/30 13:16:23;;;;;;;;;12.00;10.67;;;;;;;;5013538;28;45531;-71
2022/04/30 13:18:49;;;;;;;;;14.00;12.00;;;;;;;;5012701;28;45568;-72
2022/04/30 13:21:14;;;;;;;;;13.33;13.00;;;;;;;;5014215;28;45279;-71
2022/04/30 13:23:39;;;;;;;;;11.00;10.00;;;;;;;;5014277;28;45541;-71
2022/04/30 13:26:05;;;;;;;;;13.00;11.33;;;;;;;;5013974;28;45450;-71
2022/04/30 13:28:31;;;;;;;;;11.67;11.67;;;;;;;;5014342;28;45437;-71
2022/04/30 13:30:56;;;;;;;;;11.67;10.33;;;;;;;;5014285;28;45354;-70
2022/04/30 13:33:21;;;;;;;;;11.00;9.33;;;;;;;;5013957;28;45433;-71
2022/04/30 13:35:46;;;;;;;;;9.67;9.67;;;;;;;;5011849;28;45677;-71
2022/04/30 13:38:12;;;;;;;;;11.00;9.33;;;;;;;;5013829;28;45425;-71
2022/04/30 13:40:37;;;;;;;;;11.67;9.33;;;;;;;;5014314;28;45523;-71
2022/04/30 13:43:02;;;;;;;;;9.00;8.33;;;;;;;;5014749;28;47097;-71
2022/04/30 13:45:28;;;;;;;;;12.00;9.33;;;;;;;;5016517;28;45443;-71
2022/04/30 13:47:53;;;;;;;;;8.67;8.67;;;;;;;;5017422;28;45449;-72
2022/04/30 13:50:18;;;;;;;;;9.67;8.33;;;;;;;;5031619;28;45452;-72
2022/04/30 13:52:45;;;;;;;;;8.67;7.33;;;;;;;;5079919;27;45472;-71
2022/04/30 13:55:12;;;;;;;;;7.00;7.00;;;;;;;;5079543;27;45512;-71
2022/04/30 13:57:38;;;;;;;;;12.00;10.00;;;;;;;;5079963;27;45322;-72
2022/04/30 14:00:05;;;;;;;;;9.33;9.00;;;;;;;;5079714;27;45626;-72
2022/04/30 14:02:30;;;;;;;;;9.33;7.33;;;;;;;;5079302;27;46508;-72
2022/04/30 14:04:55;;;;;;;;;7.67;7.67;;;;;;;;5079600;27;45485;-71
2022/04/30 14:07:21;;;;;;;;;8.00;6.33;;;;;;;;5079570;27;45826;-72
2022/04/30 14:09:46;;;;;;;;;8.33;8.33;;;;;;;;5079583;27;45443;-72
2022/04/30 14:12:11;;;;;;;;;9.50;6.00;;;;;;;;5079374;27;45461;-72
2022/04/30 14:20:05;;;;;;;;;10.33;8.33;;;;;;;;5079724;28;45232;-72
2022/04/30 14:22:30;;;;;;;;;5.67;5.67;;;;;;;;5079041;27;45433;-72
2022/04/30 14:24:56;;;;;;;;;9.00;8.33;;;;;;;;5078474;27;45750;-71
2022/04/30 14:27:21;;;;;;;;;8.67;6.67;;;;;;;;5060649;27;45434;-72
2022/04/30 14:29:47;;;;;;;;;9.33;7.00;;;;;;;;5059008;28;45356;-72
2022/04/30 14:32:13;;;;;;;;;7.00;7.00;;;;;;;;5069805;28;45791;-72
2022/04/30 14:34:41;;;;;;;;;11.00;7.00;;;;;;;;5058886;28;45412;-73
2022/04/30 14:37:06;;;;;;;;;11.00;9.67;;;;;;;;5058737;28;45544;-72
2022/04/30 14:39:32;;;;;;;;;8.67;8.00;;;;;;;;5059112;28;45574;-73
2022/04/30 14:41:57;;;;;;;;;8.67;7.00;;;;;;;;5058592;28;46848;-73
2022/04/30 14:44:22;;;;;;;;;11.67;8.67;;;;;;;;5068465;28;45490;-72
2022/04/30 14:46:47;;;;;;;;;9.67;9.67;;;;;;;;5071514;27;45446;-72
2022/04/30 14:49:12;;;;;;;;;7.33;6.33;;;;;;;;5076469;27;45540;-72
2022/04/30 14:51:38;;;;;;;;;9.67;7.67;;;;;;;;5076174;27;45615;-72
2022/04/30 14:54:06;;;;;;;;;10.67;8.33;;;;;;;;5077236;27;45420;-72
2022/04/30 14:56:32;;;;;;;;;9.67;9.67;;;;;;;;5077989;27;45386;-70
2022/04/30 14:58:57;;;;;;;;;10.67;9.00;;;;;;;;5078108;27;45550;-72
2022/04/30 15:01:22;;;;;;;;;7.00;7.00;;;;;;;;5071745;28;47022;-72
2022/04/30 15:03:47;;;;;;;;;5.00;5.00;;;;;;;;5077356;27;45449;-70